sensor_id;sensor_type;location;lat;lon;timestamp;temperature;humidity
13697;DHT22;6920;50.080;8.226;2022-12-19T00:02:06;-0.90;99.90
13697;DHT22;6920;50.080;8.226;2022-12-19T00:04:35;-0.90;99.90
13697;DHT22;6920;50.080;8.226;2022-12-19T00:07:02;-1.00;99.90
13697;DHT22;6920;50.080;8.226;2022-12-19T00:09:29;-1.10;99.90
13697;DHT22;6920;50.080;8.226;2022-12-19T00:11:56;-1.00;99.90
13697;DHT22;6920;50.080;8.226;2022-12-19T00:14:23;-1.10;99.90
13697;DHT22;6920;50.080;8.226;2022-12-19T00:16:50;-0.40;99.90
13697;DHT22;6920;50.080;8.226;2022-12-19T00:19:19;-0.20;99.90
13697;DHT22;6920;50.080;8.226;2022-12-19T00:21:47;-1.00;99.90
13697;DHT22;6920;50.080;8.226;2022-12-19T00:24:14;-0.90;99.90
13697;DHT22;6920;50.080;8.226;2022-12-19T00:26:41;-0.90;99.90
13697;DHT22;6920;50.080;8.226;2022-12-19T00:29:09;-0.90;99.90
13697;DHT22;6920;50.080;8.226;2022-12-19T00:31:36;-1.00;99.90
13697;DHT22;6920;50.080;8.226;2022-12-19T00:34:03;-1.00;99.90
13697;DHT22;6920;50.080;8.226;2022-12-19T00:36:32;-1.00;99.90
13697;DHT22;6920;50.080;8.226;2022-12-19T00:39:02;-0.90;99.90
13697;DHT22;6920;50.080;8.226;2022-12-19T00:41:31;0.00;99.90
13697;DHT22;6920;50.080;8.226;2022-12-19T00:44:00;-0.80;99.90
13697;DHT22;6920;50.080;8.226;2022-12-19T00:46:28;-0.90;99.90
13697;DHT22;6920;50.080;8.226;2022-12-19T00:48:57;-0.90;99.90
13697;DHT22;6920;50.080;8.226;2022-12-19T00:51:26;-0.90;99.90
13697;DHT22;6920;50.080;8.226;2022-12-19T00:53:55;-0.80;99.90
13697;DHT22;6920;50.080;8.226;2022-12-19T00:56:25;-0.70;99.90
13697;DHT22;6920;50.080;8.226;2022-12-19T00:58:53;-0.80;99.90
13697;DHT22;6920;50.080;8.226;2022-12-19T01:01:22;-0.70;99.90
13697;DHT22;6920;50.080;8.226;2022-12-19T01:03:50;-0.40;99.90
13697;DHT22;6920;50.080;8.226;2022-12-19T01:06:17;-0.80;99.90
13697;DHT22;6920;50.080;8.226;2022-12-19T01:08:45;-0.90;99.90
13697;DHT22;6920;50.080;8.226;2022-12-19T01:11:12;-0.80;99.90
13697;DHT22;6920;50.080;8.226;2022-12-19T01:13:41;-0.70;99.90
13697;DHT22;6920;50.080;8.226;2022-12-19T01:16:09;-0.70;99.90
13697;DHT22;6920;50.080;8.226;2022-12-19T01:18:37;-0.70;99.90
13697;DHT22;6920;50.080;8.226;2022-12-19T01:21:06;-0.80;99.90
13697;DHT22;6920;50.080;8.226;2022-12-19T01:23:34;-0.70;99.90
13697;DHT22;6920;50.080;8.226;2022-12-19T01:26:02;-0.20;99.90
13697;DHT22;6920;50.080;8.226;2022-12-19T01:28:29;-0.70;99.90
13697;DHT22;6920;50.080;8.226;2022-12-19T01:30:57;-0.70;99.90
13697;DHT22;6920;50.080;8.226;2022-12-19T01:33:24;-0.60;99.90
13697;DHT22;6920;50.080;8.226;2022-12-19T01:35:51;-0.70;99.90
13697;DHT22;6920;50.080;8.226;2022-12-19T01:38:20;-0.60;99.90
13697;DHT22;6920;50.080;8.226;2022-12-19T01:40:51;-0.60;99.90
13697;DHT22;6920;50.080;8.226;2022-12-19T01:43:19;-0.60;99.90
13697;DHT22;6920;50.080;8.226;2022-12-19T01:45:47;-0.60;99.90
13697;DHT22;6920;50.080;8.226;2022-12-19T01:48:21;-0.70;99.90
13697;DHT22;6920;50.080;8.226;2022-12-19T01:50:56;-0.70;99.90
13697;DHT22;6920;50.080;8.226;2022-12-19T01:53:26;-0.30;99.90
13697;DHT22;6920;50.080;8.226;2022-12-19T01:55:54;-0.50;99.90
13697;DHT22;6920;50.080;8.226;2022-12-19T01:58:22;-0.50;99.90
13697;DHT22;6920;50.080;8.226;2022-12-19T02:00:49;-0.70;99.90
13697;DHT22;6920;50.080;8.226;2022-12-19T02:03:23;-0.70;99.90
13697;DHT22;6920;50.080;8.226;2022-12-19T02:05:53;-0.80;99.90
13697;DHT22;6920;50.080;8.226;2022-12-19T02:08:20;-0.60;99.90
13697;DHT22;6920;50.080;8.226;2022-12-19T02:10:50;-0.60;99.90
13697;DHT22;6920;50.080;8.226;2022-12-19T02:13:18;-0.50;99.90
13697;DHT22;6920;50.080;8.226;2022-12-19T02:15:51;-0.60;99.90
13697;DHT22;6920;50.080;8.226;2022-12-19T02:18:30;-0.50;99.90
13697;DHT22;6920;50.080;8.226;2022-12-19T02:21:19;-0.40;99.90
13697;DHT22;6920;50.080;8.226;2022-12-19T02:24:10;-0.30;99.90
13697;DHT22;6920;50.080;8.226;2022-12-19T02:26:57;-0.50;99.90
13697;DHT22;6920;50.080;8.226;2022-12-19T02:29:58;-0.40;99.90
13697;DHT22;6920;50.080;8.226;2022-12-19T02:32:33;-0.40;99.90
13697;DHT22;6920;50.080;8.226;2022-12-19T02:35:08;-0.40;99.90
13697;DHT22;6920;50.080;8.226;2022-12-19T02:37:43;-0.40;99.90
13697;DHT22;6920;50.080;8.226;2022-12-19T02:40:15;-0.40;99.90
13697;DHT22;6920;50.080;8.226;2022-12-19T02:42:45;-0.40;99.90
13697;DHT22;6920;50.080;8.226;2022-12-19T02:45:15;-0.40;99.90
13697;DHT22;6920;50.080;8.226;2022-12-19T02:47:46;-0.30;99.90
13697;DHT22;6920;50.080;8.226;2022-12-19T02:50:14;-0.20;99.90
13697;DHT22;6920;50.080;8.226;2022-12-19T02:52:47;-0.30;99.90
13697;DHT22;6920;50.080;8.226;2022-12-19T02:55:18;-0.50;99.90
13697;DHT22;6920;50.080;8.226;2022-12-19T02:58:06;-0.40;99.90
13697;DHT22;6920;50.080;8.226;2022-12-19T03:00:44;-0.40;99.90
13697;DHT22;6920;50.080;8.226;2022-12-19T03:03:21;-0.50;99.90
13697;DHT22;6920;50.080;8.226;2022-12-19T03:05:55;-0.50;99.90
13697;DHT22;6920;50.080;8.226;2022-12-19T03:08:31;-0.40;99.90
13697;DHT22;6920;50.080;8.226;2022-12-19T03:11:01;-0.50;99.90
13697;DHT22;6920;50.080;8.226;2022-12-19T03:13:31;-0.40;99.90
13697;DHT22;6920;50.080;8.226;2022-12-19T03:16:00;-0.30;99.90
13697;DHT22;6920;50.080;8.226;2022-12-19T03:18:31;-0.20;99.90
13697;DHT22;6920;50.080;8.226;2022-12-19T03:21:04;-0.20;99.90
13697;DHT22;6920;50.080;8.226;2022-12-19T03:23:33;-0.10;99.90
13697;DHT22;6920;50.080;8.226;2022-12-19T03:26:05;-0.20;99.90
13697;DHT22;6920;50.080;8.226;2022-12-19T03:28:40;-0.20;99.90
13697;DHT22;6920;50.080;8.226;2022-12-19T03:31:10;-0.10;99.90
13697;DHT22;6920;50.080;8.226;2022-12-19T03:33:41;-0.20;99.90
13697;DHT22;6920;50.080;8.226;2022-12-19T03:36:12;-0.20;99.90
13697;DHT22;6920;50.080;8.226;2022-12-19T03:38:43;-0.10;99.90
13697;DHT22;6920;50.080;8.226;2022-12-19T03:41:13;-0.10;99.90
13697;DHT22;6920;50.080;8.226;2022-12-19T03:44:04;-0.10;99.90
13697;DHT22;6920;50.080;8.226;2022-12-19T03:46:31;-0.10;99.90
13697;DHT22;6920;50.080;8.226;2022-12-19T03:49:01;0.00;99.90
13697;DHT22;6920;50.080;8.226;2022-12-19T03:51:32;-0.10;99.90
13697;DHT22;6920;50.080;8.226;2022-12-19T03:54:04;-0.10;99.90
13697;DHT22;6920;50.080;8.226;2022-12-19T03:56:40;-0.20;99.90
13697;DHT22;6920;50.080;8.226;2022-12-19T03:59:15;-0.30;99.90
13697;DHT22;6920;50.080;8.226;2022-12-19T04:01:43;-0.30;99.90
13697;DHT22;6920;50.080;8.226;2022-12-19T04:04:12;-0.30;99.90
13697;DHT22;6920;50.080;8.226;2022-12-19T04:06:41;-0.30;99.90
13697;DHT22;6920;50.080;8.226;2022-12-19T04:09:10;-0.30;99.90
13697;DHT22;6920;50.080;8.226;2022-12-19T04:11:40;-0.20;99.90
13697;DHT22;6920;50.080;8.226;2022-12-19T04:14:12;-0.10;99.90
13697;DHT22;6920;50.080;8.226;2022-12-19T04:16:44;-0.10;99.90
13697;DHT22;6920;50.080;8.226;2022-12-19T04:19:19;-0.10;99.90
13697;DHT22;6920;50.080;8.226;2022-12-19T04:21:54;0.00;99.90
13697;DHT22;6920;50.080;8.226;2022-12-19T04:24:26;0.00;99.90
13697;DHT22;6920;50.080;8.226;2022-12-19T04:26:56;-0.20;99.90
13697;DHT22;6920;50.080;8.226;2022-12-19T04:29:26;-0.20;99.90
13697;DHT22;6920;50.080;8.226;2022-12-19T04:31:55;-0.20;99.90
13697;DHT22;6920;50.080;8.226;2022-12-19T04:34:23;-0.20;99.90
13697;DHT22;6920;50.080;8.226;2022-12-19T04:36:50;-0.10;99.90
13697;DHT22;6920;50.080;8.226;2022-12-19T04:39:17;-0.20;99.90
13697;DHT22;6920;50.080;8.226;2022-12-19T04:41:44;-0.10;99.90
13697;DHT22;6920;50.080;8.226;2022-12-19T04:44:12;-0.10;99.90
13697;DHT22;6920;50.080;8.226;2022-12-19T04:46:39;-0.10;99.90
13697;DHT22;6920;50.080;8.226;2022-12-19T04:49:06;-0.10;99.90
13697;DHT22;6920;50.080;8.226;2022-12-19T04:51:35;-0.10;99.90
13697;DHT22;6920;50.080;8.226;2022-12-19T04:54:02;-0.10;99.90
13697;DHT22;6920;50.080;8.226;2022-12-19T04:56:29;0.00;99.90
13697;DHT22;6920;50.080;8.226;2022-12-19T04:58:56;0.00;99.90
13697;DHT22;6920;50.080;8.226;2022-12-19T05:01:24;0.10;99.90
13697;DHT22;6920;50.080;8.226;2022-12-19T05:03:51;0.10;99.90
13697;DHT22;6920;50.080;8.226;2022-12-19T05:06:19;0.10;99.90
13697;DHT22;6920;50.080;8.226;2022-12-19T05:08:49;0.10;99.90
13697;DHT22;6920;50.080;8.226;2022-12-19T05:11:17;0.10;99.90
13697;DHT22;6920;50.080;8.226;2022-12-19T05:13:44;0.20;99.90
13697;DHT22;6920;50.080;8.226;2022-12-19T05:16:12;0.30;99.90
13697;DHT22;6920;50.080;8.226;2022-12-19T05:18:40;0.40;99.90
13697;DHT22;6920;50.080;8.226;2022-12-19T05:21:07;0.30;99.90
13697;DHT22;6920;50.080;8.226;2022-12-19T05:23:36;0.30;99.90
13697;DHT22;6920;50.080;8.226;2022-12-19T05:26:05;0.50;99.90
13697;DHT22;6920;50.080;8.226;2022-12-19T05:28:33;0.30;99.90
13697;DHT22;6920;50.080;8.226;2022-12-19T05:31:05;0.40;99.90
13697;DHT22;6920;50.080;8.226;2022-12-19T05:33:33;0.40;99.90
13697;DHT22;6920;50.080;8.226;2022-12-19T05:36:01;0.40;99.90
13697;DHT22;6920;50.080;8.226;2022-12-19T05:38:28;0.30;99.90
13697;DHT22;6920;50.080;8.226;2022-12-19T05:40:55;0.40;99.90
13697;DHT22;6920;50.080;8.226;2022-12-19T05:43:24;0.40;99.90
13697;DHT22;6920;50.080;8.226;2022-12-19T05:45:52;0.30;99.90
13697;DHT22;6920;50.080;8.226;2022-12-19T05:48:19;0.40;99.90
13697;DHT22;6920;50.080;8.226;2022-12-19T05:50:47;0.30;99.90
13697;DHT22;6920;50.080;8.226;2022-12-19T05:53:15;0.20;99.90
13697;DHT22;6920;50.080;8.226;2022-12-19T05:55:42;0.30;99.90
13697;DHT22;6920;50.080;8.226;2022-12-19T05:58:09;0.40;99.90
13697;DHT22;6920;50.080;8.226;2022-12-19T06:00:38;0.40;99.90
13697;DHT22;6920;50.080;8.226;2022-12-19T06:03:06;0.40;99.90
13697;DHT22;6920;50.080;8.226;2022-12-19T06:05:36;0.40;99.90
13697;DHT22;6920;50.080;8.226;2022-12-19T06:08:04;0.30;99.90
13697;DHT22;6920;50.080;8.226;2022-12-19T06:10:32;0.20;99.90
13697;DHT22;6920;50.080;8.226;2022-12-19T06:12:59;0.30;99.90
13697;DHT22;6920;50.080;8.226;2022-12-19T06:15:27;0.20;99.90
13697;DHT22;6920;50.080;8.226;2022-12-19T06:17:55;0.20;99.90
13697;DHT22;6920;50.080;8.226;2022-12-19T06:20:22;0.30;99.90
13697;DHT22;6920;50.080;8.226;2022-12-19T06:22:49;0.50;99.90
13697;DHT22;6920;50.080;8.226;2022-12-19T06:25:16;0.40;99.90
13697;DHT22;6920;50.080;8.226;2022-12-19T06:27:43;0.50;99.90
13697;DHT22;6920;50.080;8.226;2022-12-19T06:30:11;0.50;99.90
13697;DHT22;6920;50.080;8.226;2022-12-19T06:32:39;0.40;99.90
13697;DHT22;6920;50.080;8.226;2022-12-19T06:35:08;0.40;99.90
13697;DHT22;6920;50.080;8.226;2022-12-19T06:37:35;0.40;99.90
13697;DHT22;6920;50.080;8.226;2022-12-19T06:40:03;0.40;99.90
13697;DHT22;6920;50.080;8.226;2022-12-19T06:42:30;0.40;99.90
13697;DHT22;6920;50.080;8.226;2022-12-19T06:44:57;0.50;99.90
13697;DHT22;6920;50.080;8.226;2022-12-19T06:47:24;0.60;99.90
13697;DHT22;6920;50.080;8.226;2022-12-19T06:49:51;0.60;99.90
13697;DHT22;6920;50.080;8.226;2022-12-19T06:52:21;0.70;99.90
13697;DHT22;6920;50.080;8.226;2022-12-19T06:54:48;0.70;99.90
13697;DHT22;6920;50.080;8.226;2022-12-19T06:57:15;0.70;99.90
13697;DHT22;6920;50.080;8.226;2022-12-19T06:59:42;0.70;99.90
13697;DHT22;6920;50.080;8.226;2022-12-19T07:02:20;0.70;99.90
13697;DHT22;6920;50.080;8.226;2022-12-19T07:04:50;0.70;99.90
13697;DHT22;6920;50.080;8.226;2022-12-19T07:07:20;0.70;99.90
13697;DHT22;6920;50.080;8.226;2022-12-19T07:09:47;0.60;99.90
13697;DHT22;6920;50.080;8.226;2022-12-19T07:12:14;0.60;99.90
13697;DHT22;6920;50.080;8.226;2022-12-19T07:14:41;0.70;99.90
13697;DHT22;6920;50.080;8.226;2022-12-19T07:17:09;0.70;99.90
13697;DHT22;6920;50.080;8.226;2022-12-19T07:19:38;0.60;99.90
13697;DHT22;6920;50.080;8.226;2022-12-19T07:22:07;0.60;99.90
13697;DHT22;6920;50.080;8.226;2022-12-19T07:24:39;0.60;99.90
13697;DHT22;6920;50.080;8.226;2022-12-19T07:27:08;0.60;99.90
13697;DHT22;6920;50.080;8.226;2022-12-19T07:29:36;0.70;99.90
13697;DHT22;6920;50.080;8.226;2022-12-19T07:32:04;0.60;99.90
13697;DHT22;6920;50.080;8.226;2022-12-19T07:34:32;0.60;99.90
13697;DHT22;6920;50.080;8.226;2022-12-19T07:37:00;0.70;99.90
13697;DHT22;6920;50.080;8.226;2022-12-19T07:39:27;0.60;99.90
13697;DHT22;6920;50.080;8.226;2022-12-19T07:41:57;0.70;99.90
13697;DHT22;6920;50.080;8.226;2022-12-19T07:44:26;0.80;99.90
13697;DHT22;6920;50.080;8.226;2022-12-19T07:46:54;0.70;99.90
13697;DHT22;6920;50.080;8.226;2022-12-19T07:49:22;0.70;99.90
13697;DHT22;6920;50.080;8.226;2022-12-19T07:51:49;0.60;99.90
13697;DHT22;6920;50.080;8.226;2022-12-19T07:54:16;0.60;99.90
13697;DHT22;6920;50.080;8.226;2022-12-19T07:56:45;0.70;99.90
13697;DHT22;6920;50.080;8.226;2022-12-19T07:59:17;0.80;99.90
13697;DHT22;6920;50.080;8.226;2022-12-19T08:01:44;0.70;99.90
13697;DHT22;6920;50.080;8.226;2022-12-19T08:04:11;0.70;99.90
13697;DHT22;6920;50.080;8.226;2022-12-19T08:06:40;0.70;99.90
13697;DHT22;6920;50.080;8.226;2022-12-19T08:09:07;0.70;99.90
13697;DHT22;6920;50.080;8.226;2022-12-19T08:11:35;0.70;99.90
13697;DHT22;6920;50.080;8.226;2022-12-19T08:14:02;0.70;99.90
13697;DHT22;6920;50.080;8.226;2022-12-19T08:16:32;0.80;99.90
13697;DHT22;6920;50.080;8.226;2022-12-19T08:19:03;1.90;99.90
13697;DHT22;6920;50.080;8.226;2022-12-19T08:21:30;0.90;99.90
13697;DHT22;6920;50.080;8.226;2022-12-19T08:23:59;0.80;99.90
13697;DHT22;6920;50.080;8.226;2022-12-19T08:26:26;0.90;99.90
13697;DHT22;6920;50.080;8.226;2022-12-19T08:28:57;0.90;99.90
13697;DHT22;6920;50.080;8.226;2022-12-19T08:31:27;0.90;99.90
13697;DHT22;6920;50.080;8.226;2022-12-19T08:33:57;1.00;99.90
13697;DHT22;6920;50.080;8.226;2022-12-19T08:36:25;0.90;99.90
13697;DHT22;6920;50.080;8.226;2022-12-19T08:38:55;1.00;99.90
13697;DHT22;6920;50.080;8.226;2022-12-19T08:41:22;0.90;99.90
13697;DHT22;6920;50.080;8.226;2022-12-19T08:43:51;1.10;99.90
13697;DHT22;6920;50.080;8.226;2022-12-19T08:46:23;1.00;99.90
13697;DHT22;6920;50.080;8.226;2022-12-19T08:48:53;1.00;99.90
13697;DHT22;6920;50.080;8.226;2022-12-19T08:51:36;1.00;99.90
13697;DHT22;6920;50.080;8.226;2022-12-19T08:54:06;1.00;99.90
13697;DHT22;6920;50.080;8.226;2022-12-19T08:56:35;1.10;99.90
13697;DHT22;6920;50.080;8.226;2022-12-19T08:59:04;1.10;99.90
13697;DHT22;6920;50.080;8.226;2022-12-19T09:01:31;1.10;99.90
13697;DHT22;6920;50.080;8.226;2022-12-19T09:03:59;1.10;99.90
13697;DHT22;6920;50.080;8.226;2022-12-19T09:06:27;1.10;99.90
13697;DHT22;6920;50.080;8.226;2022-12-19T09:08:56;1.10;99.90
13697;DHT22;6920;50.080;8.226;2022-12-19T09:11:25;1.20;99.90
13697;DHT22;6920;50.080;8.226;2022-12-19T09:13:55;1.20;99.90
13697;DHT22;6920;50.080;8.226;2022-12-19T09:16:25;1.30;99.90
13697;DHT22;6920;50.080;8.226;2022-12-19T09:18:54;1.30;99.90
13697;DHT22;6920;50.080;8.226;2022-12-19T09:21:28;1.40;99.90
13697;DHT22;6920;50.080;8.226;2022-12-19T09:23:58;1.40;99.90
13697;DHT22;6920;50.080;8.226;2022-12-19T09:26:27;1.40;99.90
13697;DHT22;6920;50.080;8.226;2022-12-19T09:28:55;1.20;99.90
13697;DHT22;6920;50.080;8.226;2022-12-19T09:31:25;1.20;99.90
13697;DHT22;6920;50.080;8.226;2022-12-19T09:33:53;1.10;99.90
13697;DHT22;6920;50.080;8.226;2022-12-19T09:36:21;1.10;99.90
13697;DHT22;6920;50.080;8.226;2022-12-19T09:38:53;1.10;99.90
13697;DHT22;6920;50.080;8.226;2022-12-19T09:47:23;1.20;99.90
13697;DHT22;6920;50.080;8.226;2022-12-19T09:49:55;1.20;99.90
13697;DHT22;6920;50.080;8.226;2022-12-19T09:52:30;1.10;99.90
13697;DHT22;6920;50.080;8.226;2022-12-19T09:55:03;1.10;99.90
13697;DHT22;6920;50.080;8.226;2022-12-19T09:57:38;1.20;99.90
13697;DHT22;6920;50.080;8.226;2022-12-19T10:00:11;1.20;99.90
13697;DHT22;6920;50.080;8.226;2022-12-19T10:02:44;1.20;99.90
13697;DHT22;6920;50.080;8.226;2022-12-19T10:05:17;1.30;99.90
13697;DHT22;6920;50.080;8.226;2022-12-19T10:07:49;1.30;99.90
13697;DHT22;6920;50.080;8.226;2022-12-19T10:10:29;1.30;99.90
13697;DHT22;6920;50.080;8.226;2022-12-19T10:13:15;1.20;99.90
13697;DHT22;6920;50.080;8.226;2022-12-19T10:15:52;1.30;99.90
13697;DHT22;6920;50.080;8.226;2022-12-19T10:18:50;1.30;99.90
13697;DHT22;6920;50.080;8.226;2022-12-19T10:21:30;1.30;99.90
13697;DHT22;6920;50.080;8.226;2022-12-19T10:27:11;1.30;99.90
13697;DHT22;6920;50.080;8.226;2022-12-19T10:30:12;1.30;99.90
13697;DHT22;6920;50.080;8.226;2022-12-19T10:33:01;1.50;99.90
13697;DHT22;6920;50.080;8.226;2022-12-19T10:35:36;1.50;99.90
13697;DHT22;6920;50.080;8.226;2022-12-19T10:38:18;1.50;99.90
13697;DHT22;6920;50.080;8.226;2022-12-19T10:41:06;1.40;99.90
13697;DHT22;6920;50.080;8.226;2022-12-19T10:43:45;1.40;99.90
13697;DHT22;6920;50.080;8.226;2022-12-19T10:46:27;1.50;99.90
13697;DHT22;6920;50.080;8.226;2022-12-19T10:48:58;1.40;99.90
13697;DHT22;6920;50.080;8.226;2022-12-19T10:51:28;1.40;99.90
13697;DHT22;6920;50.080;8.226;2022-12-19T10:53:59;1.40;99.90
13697;DHT22;6920;50.080;8.226;2022-12-19T10:56:28;1.40;99.90
13697;DHT22;6920;50.080;8.226;2022-12-19T10:59:00;1.50;99.90
13697;DHT22;6920;50.080;8.226;2022-12-19T11:01:31;1.60;99.90
13697;DHT22;6920;50.080;8.226;2022-12-19T11:04:27;1.50;99.90
13697;DHT22;6920;50.080;8.226;2022-12-19T11:07:16;1.60;99.90
13697;DHT22;6920;50.080;8.226;2022-12-19T11:09:46;1.60;99.90
13697;DHT22;6920;50.080;8.226;2022-12-19T11:12:16;1.60;99.90
13697;DHT22;6920;50.080;8.226;2022-12-19T11:14:50;1.70;99.90
13697;DHT22;6920;50.080;8.226;2022-12-19T11:17:37;1.80;99.90
13697;DHT22;6920;50.080;8.226;2022-12-19T11:20:12;1.70;99.90
13697;DHT22;6920;50.080;8.226;2022-12-19T11:22:50;1.70;99.90
13697;DHT22;6920;50.080;8.226;2022-12-19T11:25:22;1.70;99.90
13697;DHT22;6920;50.080;8.226;2022-12-19T11:27:49;1.70;99.90
13697;DHT22;6920;50.080;8.226;2022-12-19T11:30:21;1.80;99.90
13697;DHT22;6920;50.080;8.226;2022-12-19T11:35:49;1.70;99.90
13697;DHT22;6920;50.080;8.226;2022-12-19T11:38:44;1.80;99.90
13697;DHT22;6920;50.080;8.226;2022-12-19T11:41:31;1.80;99.90
13697;DHT22;6920;50.080;8.226;2022-12-19T11:44:05;1.70;99.90
13697;DHT22;6920;50.080;8.226;2022-12-19T11:46:52;1.70;99.90
13697;DHT22;6920;50.080;8.226;2022-12-19T11:49:27;1.70;99.90
13697;DHT22;6920;50.080;8.226;2022-12-19T11:52:03;1.90;99.90
13697;DHT22;6920;50.080;8.226;2022-12-19T11:54:38;1.90;99.90
13697;DHT22;6920;50.080;8.226;2022-12-19T11:57:13;2.00;99.90
13697;DHT22;6920;50.080;8.226;2022-12-19T11:59:42;2.10;99.90
13697;DHT22;6920;50.080;8.226;2022-12-19T12:02:41;2.10;99.90
13697;DHT22;6920;50.080;8.226;2022-12-19T12:05:38;2.10;99.90
13697;DHT22;6920;50.080;8.226;2022-12-19T12:08:28;2.00;99.90
13697;DHT22;6920;50.080;8.226;2022-12-19T12:11:02;2.00;99.90
13697;DHT22;6920;50.080;8.226;2022-12-19T12:13:38;1.90;99.90
13697;DHT22;6920;50.080;8.226;2022-12-19T12:16:12;2.00;99.90
13697;DHT22;6920;50.080;8.226;2022-12-19T12:18:55;1.90;99.90
13697;DHT22;6920;50.080;8.226;2022-12-19T12:21:31;1.90;99.90
13697;DHT22;6920;50.080;8.226;2022-12-19T12:24:15;2.00;99.90
13697;DHT22;6920;50.080;8.226;2022-12-19T12:26:51;2.00;99.90
13697;DHT22;6920;50.080;8.226;2022-12-19T12:29:23;2.00;99.90
13697;DHT22;6920;50.080;8.226;2022-12-19T12:35:04;1.90;99.90
13697;DHT22;6920;50.080;8.226;2022-12-19T12:37:43;1.90;99.90
13697;DHT22;6920;50.080;8.226;2022-12-19T12:40:39;1.90;99.90
13697;DHT22;6920;50.080;8.226;2022-12-19T12:43:30;2.00;99.90
13697;DHT22;6920;50.080;8.226;2022-12-19T12:46:03;2.00;99.90
13697;DHT22;6920;50.080;8.226;2022-12-19T12:48:35;2.00;99.90
13697;DHT22;6920;50.080;8.226;2022-12-19T12:51:07;2.10;99.90
13697;DHT22;6920;50.080;8.226;2022-12-19T12:53:38;2.20;99.90
13697;DHT22;6920;50.080;8.226;2022-12-19T12:56:13;2.20;99.90
13697;DHT22;6920;50.080;8.226;2022-12-19T13:01:33;2.20;99.90
13697;DHT22;6920;50.080;8.226;2022-12-19T13:04:04;2.00;99.90
13697;DHT22;6920;50.080;8.226;2022-12-19T13:06:34;2.20;99.90
13697;DHT22;6920;50.080;8.226;2022-12-19T13:09:20;2.30;99.90
13697;DHT22;6920;50.080;8.226;2022-12-19T13:11:52;2.30;99.90
13697;DHT22;6920;50.080;8.226;2022-12-19T13:14:48;2.30;99.90
13697;DHT22;6920;50.080;8.226;2022-12-19T13:17:23;2.30;99.90
13697;DHT22;6920;50.080;8.226;2022-12-19T13:19:56;2.40;99.90
13697;DHT22;6920;50.080;8.226;2022-12-19T13:22:39;2.30;99.90
13697;DHT22;6920;50.080;8.226;2022-12-19T13:28:39;2.30;99.90
13697;DHT22;6920;50.080;8.226;2022-12-19T13:31:19;2.30;99.90
13697;DHT22;6920;50.080;8.226;2022-12-19T13:34:15;2.40;99.90
13697;DHT22;6920;50.080;8.226;2022-12-19T13:36:46;2.40;99.90
13697;DHT22;6920;50.080;8.226;2022-12-19T13:39:29;2.40;99.90
13697;DHT22;6920;50.080;8.226;2022-12-19T13:42:14;2.40;99.90
13697;DHT22;6920;50.080;8.226;2022-12-19T13:45:04;2.50;99.90
13697;DHT22;6920;50.080;8.226;2022-12-19T13:47:36;2.50;99.90
13697;DHT22;6920;50.080;8.226;2022-12-19T13:50:13;2.50;99.90
13697;DHT22;6920;50.080;8.226;2022-12-19T13:52:46;2.50;99.90
13697;DHT22;6920;50.080;8.226;2022-12-19T13:55:13;2.50;99.90
13697;DHT22;6920;50.080;8.226;2022-12-19T13:57:45;2.50;99.90
13697;DHT22;6920;50.080;8.226;2022-12-19T14:00:20;2.50;99.90
13697;DHT22;6920;50.080;8.226;2022-12-19T14:02:49;2.40;99.90
13697;DHT22;6920;50.080;8.226;2022-12-19T14:05:23;2.50;99.90
13697;DHT22;6920;50.080;8.226;2022-12-19T14:07:51;2.40;99.90
13697;DHT22;6920;50.080;8.226;2022-12-19T14:10:28;2.40;99.90
13697;DHT22;6920;50.080;8.226;2022-12-19T14:12:57;2.30;99.90
13697;DHT22;6920;50.080;8.226;2022-12-19T14:15:46;2.30;99.90
13697;DHT22;6920;50.080;8.226;2022-12-19T14:18:18;2.30;99.90
13697;DHT22;6920;50.080;8.226;2022-12-19T14:20:48;2.40;99.90
13697;DHT22;6920;50.080;8.226;2022-12-19T14:23:21;2.30;99.90
13697;DHT22;6920;50.080;8.226;2022-12-19T14:25:59;2.30;99.90
13697;DHT22;6920;50.080;8.226;2022-12-19T14:28:40;2.30;99.90
13697;DHT22;6920;50.080;8.226;2022-12-19T14:31:12;2.30;99.90
13697;DHT22;6920;50.080;8.226;2022-12-19T14:33:44;2.40;99.90
13697;DHT22;6920;50.080;8.226;2022-12-19T14:36:12;2.40;99.90
13697;DHT22;6920;50.080;8.226;2022-12-19T14:38:45;2.40;99.90
13697;DHT22;6920;50.080;8.226;2022-12-19T14:41:29;2.30;99.90
13697;DHT22;6920;50.080;8.226;2022-12-19T14:44:13;2.30;99.90
13697;DHT22;6920;50.080;8.226;2022-12-19T14:46:58;2.30;99.90
13697;DHT22;6920;50.080;8.226;2022-12-19T14:49:31;2.40;99.90
13697;DHT22;6920;50.080;8.226;2022-12-19T14:52:02;2.30;99.90
13697;DHT22;6920;50.080;8.226;2022-12-19T14:54:30;2.20;99.90
13697;DHT22;6920;50.080;8.226;2022-12-19T14:57:00;2.20;99.90
13697;DHT22;6920;50.080;8.226;2022-12-19T14:59:30;2.20;99.90
13697;DHT22;6920;50.080;8.226;2022-12-19T15:02:14;2.20;99.90
13697;DHT22;6920;50.080;8.226;2022-12-19T15:04:44;2.10;99.90
13697;DHT22;6920;50.080;8.226;2022-12-19T15:07:17;2.00;99.90
13697;DHT22;6920;50.080;8.226;2022-12-19T15:09:54;2.10;99.90
13697;DHT22;6920;50.080;8.226;2022-12-19T15:12:26;2.00;99.90
13697;DHT22;6920;50.080;8.226;2022-12-19T15:15:20;2.10;99.90
13697;DHT22;6920;50.080;8.226;2022-12-19T15:17:52;2.10;99.90
13697;DHT22;6920;50.080;8.226;2022-12-19T15:20:19;2.10;99.90
13697;DHT22;6920;50.080;8.226;2022-12-19T15:22:47;2.00;99.90
13697;DHT22;6920;50.080;8.226;2022-12-19T15:25:15;2.00;99.90
13697;DHT22;6920;50.080;8.226;2022-12-19T15:27:44;2.10;99.90
13697;DHT22;6920;50.080;8.226;2022-12-19T15:30:16;2.10;99.90
13697;DHT22;6920;50.080;8.226;2022-12-19T15:32:44;2.00;99.90
13697;DHT22;6920;50.080;8.226;2022-12-19T15:35:16;2.00;99.90
13697;DHT22;6920;50.080;8.226;2022-12-19T15:37:43;1.90;99.90
13697;DHT22;6920;50.080;8.226;2022-12-19T15:40:14;1.80;99.90
13697;DHT22;6920;50.080;8.226;2022-12-19T15:42:42;1.80;99.90
13697;DHT22;6920;50.080;8.226;2022-12-19T15:45:13;1.90;99.90
13697;DHT22;6920;50.080;8.226;2022-12-19T15:47:42;1.80;99.90
13697;DHT22;6920;50.080;8.226;2022-12-19T15:50:19;1.80;99.90
13697;DHT22;6920;50.080;8.226;2022-12-19T15:52:47;1.90;99.90
13697;DHT22;6920;50.080;8.226;2022-12-19T15:55:16;1.90;99.90
13697;DHT22;6920;50.080;8.226;2022-12-19T15:57:44;1.90;99.90
13697;DHT22;6920;50.080;8.226;2022-12-19T16:00:16;2.00;99.90
13697;DHT22;6920;50.080;8.226;2022-12-19T16:02:46;1.90;99.90
13697;DHT22;6920;50.080;8.226;2022-12-19T16:05:14;1.90;99.90
13697;DHT22;6920;50.080;8.226;2022-12-19T16:07:43;1.90;99.90
13697;DHT22;6920;50.080;8.226;2022-12-19T16:10:12;1.90;99.90
13697;DHT22;6920;50.080;8.226;2022-12-19T16:12:47;1.90;99.90
13697;DHT22;6920;50.080;8.226;2022-12-19T16:15:24;1.80;99.90
13697;DHT22;6920;50.080;8.226;2022-12-19T16:17:56;1.80;99.90
13697;DHT22;6920;50.080;8.226;2022-12-19T16:20:24;1.80;99.90
13697;DHT22;6920;50.080;8.226;2022-12-19T16:22:54;1.70;99.90
13697;DHT22;6920;50.080;8.226;2022-12-19T16:25:26;1.80;99.90
13697;DHT22;6920;50.080;8.226;2022-12-19T16:27:56;1.80;99.90
13697;DHT22;6920;50.080;8.226;2022-12-19T16:30:27;1.80;99.90
13697;DHT22;6920;50.080;8.226;2022-12-19T16:32:55;1.80;99.90
13697;DHT22;6920;50.080;8.226;2022-12-19T16:35:23;1.80;99.90
13697;DHT22;6920;50.080;8.226;2022-12-19T16:37:52;1.70;99.90
13697;DHT22;6920;50.080;8.226;2022-12-19T16:40:21;1.70;99.90
13697;DHT22;6920;50.080;8.226;2022-12-19T16:42:57;1.80;99.90
13697;DHT22;6920;50.080;8.226;2022-12-19T16:45:25;1.80;99.90
13697;DHT22;6920;50.080;8.226;2022-12-19T16:47:52;1.70;99.90
13697;DHT22;6920;50.080;8.226;2022-12-19T16:50:22;1.70;99.90